Tuesday, July 25, 2017, 2:36 AM EDT

KRIC, Richmond International Airport

Location: Sandston, VA, United States Lat: 37.517
Local Time: 2:36 AM EDT ( 6:36 GMT) Lon: -77.317
Time Zone: US/Eastern Elev: 167 ft

Show me the last for .
Show Decoded

2017-07-25 01:54 METAR KRIC 250554Z 28006KT 10SM FEW300 27/22 A2993 RMK AO2 SLP136 T02670217
                 10306 20267 53015 =
2017-07-25 00:54 METAR KRIC 250454Z 26005KT 10SM FEW075 SCT300 28/22 A2991 RMK AO2 SLP130
                 T02780217 403440222 =
2017-07-24 23:54 METAR KRIC 250354Z 25007KT 10SM FEW120 SCT300 28/22 A2989 RMK AO2 SLP123
                 T02830217 =
2017-07-24 22:54 METAR KRIC 250254Z 24005KT 10SM FEW120 SCT300 27/22 A2988 RMK AO2 SLP121
                 T02720217 51013 =
2017-07-24 21:54 METAR KRIC 250154Z 21006KT 10SM FEW150 BKN300 27/22 A2988 RMK AO2 SLP120
                 T02670217 =
2017-07-24 20:54 METAR KRIC 250054Z 21006KT 10SM FEW060 FEW150 BKN300 28/22 A2986 RMK AO2 SLP113
                 T02780217 =
2017-07-24 19:54 METAR KRIC 242354Z 20006KT 10SM FEW150 BKN300 31/22 A2984 RMK AO2 SLP108
                 T03060217 10344 20306 53003 =
2017-07-24 18:54 METAR KRIC 242254Z 22007KT 10SM FEW060 BKN300 33/19 A2983 RMK AO2 SLP104
                 T03330194 =
2017-07-24 17:54 METAR KRIC 242154Z 26006KT 10SM SCT060 BKN300 34/19 A2983 RMK AO2 SLP103
                 T03390189 =
2017-07-24 16:54 METAR KRIC 242054Z VRB06KT 10SM SCT060 BKN300 34/18 A2983 RMK AO2 SLP105
                 T03440183 58004 =
2017-07-24 15:54 METAR KRIC 241954Z 24006KT 10SM SCT050 BKN300 34/19 A2984 RMK AO2 SLP107
                 T03390194 =
2017-07-24 14:54 METAR KRIC 241854Z 26008KT 10SM SCT050 BKN300 33/21 A2984 RMK AO2 SLP108
                 T03330206 =
2017-07-24 13:54 METAR KRIC 241754Z 24007KT 10SM SCT046 BKN300 33/21 A2984 RMK AO2 SLP109
                 T03280206 10328 20233 58003 =
2017-07-24 12:54 METAR KRIC 241654Z VRB06KT 10SM SCT038 BKN300 31/21 A2985 RMK AO2 SLP111
                 T03110206 =
2017-07-24 11:54 METAR KRIC 241554Z 27008KT 10SM FEW050 BKN300 31/22 A2985 RMK AO2 SLP111
                 T03060217 =
2017-07-24 10:54 METAR KRIC 241454Z 26009KT 10SM SCT150 BKN300 28/22 A2986 RMK AO2 SLP112
                 T02830217 53010 =
2017-07-24 09:54 METAR KRIC 241354Z 24009KT 10SM SCT150 BKN300 26/22 A2984 RMK AO2 SLP107
                 T02610222 =
2017-07-24 08:54 METAR KRIC 241254Z 23009KT 10SM BKN150 OVC300 24/22 A2984 RMK AO2 SLP105
                 T02440217 =
2017-07-24 07:54 METAR KRIC 241154Z 21006KT 10SM FEW045 BKN120 OVC300 23/22 A2982 RMK AO2
                 RAB32E46 SLP102 P0000 60001 70070 T02330217 10244 20222 53016 =
2017-07-24 06:54 METAR KRIC 241054Z 23008KT 10SM SCT100 BKN170 OVC300 23/21 A2981 RMK AO2 SLP095
                 T02280211 =
2017-07-24 05:54 METAR KRIC 240954Z 19007KT 10SM SCT180 BKN250 22/22 A2979 RMK AO2 SLP089
                 T02220217 =
2017-07-24 04:54 METAR KRIC 240854Z 19006KT 10SM SCT200 22/22 A2978 RMK AO2 SLP086 60001
                 T02220217 58008 =
2017-07-24 03:54 METAR KRIC 240754Z 20008KT 10SM FEW075 BKN200 23/22 A2979 RMK AO2 SLP090
                 T02280222 =
2017-07-24 02:54 METAR KRIC 240654Z 21009KT 10SM FEW070 BKN180 24/23 A2980 RMK AO2 RAB0555E21
                 SLP093 P0001 T02390228 =

Support USWX by starting your Amazon purchase here.